createdAt,value
2023-04-17T00:07:44.859Z,9.60
2023-04-17T00:18:44.720Z,10.90
2023-04-17T00:29:44.609Z,11.50
2023-04-17T00:40:44.489Z,11.80
2023-04-17T00:51:44.348Z,12.30
2023-04-17T01:02:44.381Z,13.20
2023-04-17T01:13:44.108Z,11.70
2023-04-17T01:24:43.983Z,9.30
2023-04-17T01:35:43.850Z,10.40
2023-04-17T01:46:43.783Z,10.60
2023-04-17T01:57:43.623Z,11.00
2023-04-17T02:08:43.497Z,11.60
2023-04-17T02:19:43.357Z,11.30
2023-04-17T02:30:43.238Z,9.50
2023-04-17T02:41:43.108Z,9.80
2023-04-17T02:52:43.015Z,10.20
2023-04-17T03:03:43.266Z,10.70
2023-04-17T03:14:42.745Z,10.40
2023-04-17T03:25:42.629Z,9.70
2023-04-17T03:36:42.482Z,13.70
2023-04-17T03:47:42.451Z,11.80
2023-04-17T03:58:42.304Z,14.20
2023-04-17T04:09:42.122Z,12.30
2023-04-17T04:20:41.976Z,14.10
2023-04-17T04:31:41.873Z,15.80
2023-04-17T04:42:41.736Z,14.00
2023-04-17T04:53:41.611Z,15.50
2023-04-17T05:04:41.620Z,13.80
2023-04-17T05:15:41.373Z,15.90
2023-04-17T05:26:41.240Z,15.70
2023-04-17T05:37:41.117Z,19.10
2023-04-17T05:48:40.997Z,22.60
2023-04-17T05:59:40.874Z,17.10
2023-04-17T06:10:40.801Z,14.00
2023-04-17T06:21:40.618Z,13.60
2023-04-17T06:32:40.516Z,12.80
2023-04-17T06:43:40.370Z,12.00
2023-04-17T06:54:40.242Z,14.80
2023-04-17T07:05:40.122Z,15.30
2023-04-17T07:16:40.048Z,13.70
2023-04-17T07:27:39.863Z,11.80
2023-04-17T07:38:41.029Z,13.80
2023-04-17T07:49:39.637Z,11.30
2023-04-17T08:00:39.490Z,11.40
2023-04-17T08:11:53.344Z,11.50
2023-04-17T08:22:39.246Z,8.80
2023-04-17T08:33:39.110Z,7.40
2023-04-17T08:44:39.004Z,4.20
2023-04-17T08:55:38.879Z,4.50
2023-04-17T09:06:38.744Z,5.20
2023-04-17T09:17:38.702Z,6.60
2023-04-17T09:28:38.480Z,6.40
2023-04-17T09:39:38.367Z,6.90
2023-04-17T09:50:39.060Z,5.70
2023-04-17T10:01:38.200Z,4.80
2023-04-17T10:12:37.982Z,5.00
2023-04-17T10:23:37.842Z,5.50
2023-04-17T10:34:37.761Z,6.00
2023-04-17T10:45:37.664Z,6.40
2023-04-17T10:56:37.600Z,7.40
2023-04-17T11:07:37.356Z,5.50
2023-04-17T11:18:37.230Z,5.80
2023-04-17T11:29:37.106Z,3.50
2023-04-17T11:40:36.973Z,2.30
2023-04-17T11:51:36.850Z,2.30
2023-04-17T12:02:36.887Z,5.30
2023-04-17T12:13:36.607Z,4.20
2023-04-17T12:24:36.473Z,4.50
2023-04-17T12:35:36.348Z,5.70
2023-04-17T12:46:36.234Z,5.00
2023-04-17T12:57:36.140Z,5.40
2023-04-17T13:08:36.191Z,5.00
2023-04-17T13:19:35.863Z,4.90
2023-04-17T13:30:35.753Z,2.90
2023-04-17T13:41:35.607Z,3.00
2023-04-17T13:52:35.478Z,3.10
2023-04-17T14:03:37.614Z,3.30
2023-04-17T14:14:35.328Z,3.30
2023-04-17T14:25:35.125Z,2.80
2023-04-17T14:36:34.972Z,3.30
2023-04-17T14:47:34.864Z,2.20
2023-04-17T14:58:34.734Z,2.10
2023-04-17T15:09:34.607Z,1.90
2023-04-17T15:20:36.388Z,1.80
2023-04-17T15:31:34.409Z,3.00
2023-04-17T15:42:34.224Z,2.20
2023-04-17T15:53:34.113Z,1.80
2023-04-17T16:04:34.032Z,1.80
2023-04-17T16:15:33.894Z,1.30
2023-04-17T16:26:33.725Z,1.70
2023-04-17T16:37:33.591Z,1.80
2023-04-17T16:48:33.528Z,1.50
2023-04-17T16:59:33.388Z,1.90
2023-04-17T17:10:33.232Z,2.30
2023-04-17T17:21:33.093Z,1.80
2023-04-17T17:32:33.001Z,1.80
2023-04-17T17:43:32.859Z,2.50
2023-04-17T17:54:32.723Z,2.20
2023-04-17T18:05:32.624Z,3.10
2023-04-17T18:16:32.500Z,1.90
2023-04-17T18:27:32.352Z,2.50
2023-04-17T18:38:32.217Z,2.10
2023-04-17T18:49:32.095Z,2.90
2023-04-17T19:00:31.996Z,3.50
2023-04-17T19:11:31.849Z,3.30
2023-04-17T19:22:31.727Z,2.60
2023-04-17T19:33:31.606Z,3.60
2023-04-17T19:44:31.465Z,4.30
2023-04-17T19:55:31.351Z,3.90
2023-04-17T20:06:31.229Z,3.90
2023-04-17T20:17:31.129Z,3.90
2023-04-17T20:28:30.976Z,4.00
2023-04-17T20:39:30.859Z,3.60
2023-04-17T20:50:30.750Z,3.80
2023-04-17T21:01:30.623Z,4.60
2023-04-17T21:12:30.464Z,4.20
2023-04-17T21:23:30.357Z,5.40
2023-04-17T21:34:30.226Z,4.70
2023-04-17T21:45:30.131Z,4.30
2023-04-17T21:56:30.019Z,5.10
2023-04-17T22:07:30.144Z,5.10
2023-04-17T22:18:29.736Z,5.50
2023-04-17T22:29:29.619Z,5.40
2023-04-17T22:40:29.474Z,6.00
2023-04-17T22:51:29.377Z,5.90
2023-04-17T23:02:29.341Z,6.50
2023-04-17T23:13:29.092Z,6.40
2023-04-17T23:24:28.978Z,6.40
2023-04-17T23:35:28.834Z,6.70
2023-04-17T23:46:28.747Z,7.50
2023-04-17T23:57:28.586Z,7.70
